Morning Charlotte — 3EMA2 — position and weather

sailwx.info

Track history (hours):
 
Tides and Currents Weather Stations Pressure Air Temp Water Temp Dewpoint Dewpoint Depression Visibility Wind Speed Wind Dir Waves Ship Positions

Morning Charlotte

Last reported at 2017-Feb-22 13:33 UTC. Time now 2017-Feb-23 02:35 UTC.
Position N 38°27' W 073°13'.

Length 200 m; draft 7.5 m.

Type: Cargo ship. MMSI: 357275000.

Date/timePositionNaut miles runAvg speedWind from/ knotsBaromVisibWave heightAir tempDewpointWater temp
2017-Feb-22 13:33N 38°27' W 073°13'1716.7
2017-Feb-22 12:34N 38°32' W 073°33'1716.5
2017-Feb-22 11:34N 38°37' W 073°53'1716.5
2017-Feb-22 10:34N 38°41' W 074°14'1615.5
2017-Feb-22 09:33N 38°46' W 074°33'1010.1
2017-Feb-22 08:33N 38°46' W 074°46'10 9.6
2017-Feb-22 07:33N 38°46' W 074°58'8 8.1
2017-Feb-22 06:33N 38°52' W 075°05'1313.2
2017-Feb-22 05:33N 39°04' W 075°11'1615.7
2017-Feb-22 04:34N 39°17' W 075°22'1615.5
2017-Feb-22 03:34N 39°30' W 075°33'1313.2
2017-Feb-22 02:33N 39°43' W 075°30'1010.3
2017-Feb-22 01:33N 39°50' W 075°21'8 8.3
2017-Feb-22 00:33N 39°53' W 075°11'2 2.4
2017-Feb-21 23:32N 39°54' W 075°08'0 0.0
2017-Feb-21 22:32N 39°54' W 075°08'0 0.0
2017-Feb-21 21:32N 39°54' W 075°08'0 0.0
2017-Feb-21 20:32N 39°54' W 075°08'0 0.0
2017-Feb-21 19:32N 39°54' W 075°08'0 0.0
2017-Feb-21 18:32N 39°54' W 075°08'0 0.0
2017-Feb-21 17:32N 39°54' W 075°08'0 0.0
2017-Feb-21 16:32N 39°54' W 075°08'0 0.0
2017-Feb-21 15:20N 39°54' W 075°08'0 0.0
2017-Feb-21 14:32N 39°54' W 075°08'0 0.0
2017-Feb-21 12:20N 39°54' W 075°08'0 0.0
2017-Feb-21 11:32N 39°54' W 075°08'0 0.0
2017-Feb-21 10:20N 39°54' W 075°08'0 0.1
2017-Feb-21 09:34N 39°54' W 075°08'6 5.9
2017-Feb-21 08:33N 39°51' W 075°15'9 8.9
2017-Feb-21 07:34N 39°48' W 075°25'1010.4
2017-Feb-21 06:33N 39°39' W 075°33'10 9.7
2017-Feb-21 05:33N 39°30' W 075°34'1211.8
2017-Feb-21 04:33N 39°20' W 075°25'1313.1
2017-Feb-21 03:33N 39°09' W 075°15'1413.5
2017-Feb-21 02:33N 38°57' W 075°07'33 0.7
2017-Feb-19 03:14N 38°32' W 074°39'0 0.0
2017-Feb-19 02:32N 38°32' W 074°39'0 0.0
2017-Feb-18 15:26N 38°32' W 074°39'0 0.0
2017-Feb-18 14:32N 38°32' W 074°39'0 0.0
2017-Feb-18 01:20N 38°32' W 074°39'  
2017-Feb-15 04:07N 31°03' W 081°14'9 9.2
2017-Feb-15 03:10N 30°58' W 081°06'  
Track history (hours):
 
Tides and Currents Weather Stations Pressure Air Temp Water Temp Dewpoint Dewpoint Depression Visibility Wind Speed Wind Dir Waves Ship Positions

Morning Charlotte

Last reported at 2017-Feb-22 13:33 UTC. Time now 2017-Feb-23 02:35 UTC.
Position N 38°27' W 073°13'.

Length 200 m; draft 7.5 m.

Type: Cargo ship. MMSI: 357275000.

Date/timePositionNaut miles runAvg speedWind from/ knotsBaromVisibWave heightAir tempDewpointWater temp
2017-Feb-22 13:33N 38°27' W 073°13'1716.7
2017-Feb-22 12:34N 38°32' W 073°33'1716.5
2017-Feb-22 11:34N 38°37' W 073°53'1716.5
2017-Feb-22 10:34N 38°41' W 074°14'1615.5
2017-Feb-22 09:33N 38°46' W 074°33'1010.1
2017-Feb-22 08:33N 38°46' W 074°46'10 9.6
2017-Feb-22 07:33N 38°46' W 074°58'8 8.1
2017-Feb-22 06:33N 38°52' W 075°05'1313.2
2017-Feb-22 05:33N 39°04' W 075°11'1615.7
2017-Feb-22 04:34N 39°17' W 075°22'1615.5
2017-Feb-22 03:34N 39°30' W 075°33'1313.2
2017-Feb-22 02:33N 39°43' W 075°30'1010.3
2017-Feb-22 01:33N 39°50' W 075°21'8 8.3
2017-Feb-22 00:33N 39°53' W 075°11'2 2.4
2017-Feb-21 23:32N 39°54' W 075°08'0 0.0
2017-Feb-21 22:32N 39°54' W 075°08'0 0.0
2017-Feb-21 21:32N 39°54' W 075°08'0 0.0
2017-Feb-21 20:32N 39°54' W 075°08'0 0.0
2017-Feb-21 19:32N 39°54' W 075°08'0 0.0
2017-Feb-21 18:32N 39°54' W 075°08'0 0.0
2017-Feb-21 17:32N 39°54' W 075°08'0 0.0
2017-Feb-21 16:32N 39°54' W 075°08'0 0.0
2017-Feb-21 15:20N 39°54' W 075°08'0 0.0
2017-Feb-21 14:32N 39°54' W 075°08'0 0.0
2017-Feb-21 12:20N 39°54' W 075°08'0 0.0
2017-Feb-21 11:32N 39°54' W 075°08'0 0.0
2017-Feb-21 10:20N 39°54' W 075°08'0 0.1
2017-Feb-21 09:34N 39°54' W 075°08'6 5.9
2017-Feb-21 08:33N 39°51' W 075°15'9 8.9
2017-Feb-21 07:34N 39°48' W 075°25'1010.4
2017-Feb-21 06:33N 39°39' W 075°33'10 9.7
2017-Feb-21 05:33N 39°30' W 075°34'1211.8
2017-Feb-21 04:33N 39°20' W 075°25'1313.1
2017-Feb-21 03:33N 39°09' W 075°15'1413.5
2017-Feb-21 02:33N 38°57' W 075°07'33 0.7
2017-Feb-19 03:14N 38°32' W 074°39'0 0.0
2017-Feb-19 02:32N 38°32' W 074°39'0 0.0
2017-Feb-18 15:26N 38°32' W 074°39'0 0.0
2017-Feb-18 14:32N 38°32' W 074°39'0 0.0
2017-Feb-18 01:20N 38°32' W 074°39'  
2017-Feb-15 04:07N 31°03' W 081°14'9 9.2
2017-Feb-15 03:10N 30°58' W 081°06'  

Dump ship's entire track history